CDT,Max TemperatureF,Mean TemperatureF,Min TemperatureF,Max Dew PointF,MeanDew PointF,Min DewpointF,Max Humidity, Mean Humidity, Min Humidity, Max Sea Level PressureIn, Mean Sea Level PressureIn, Min Sea Level PressureIn, Max VisibilityMiles, Mean VisibilityMiles, Min VisibilityMiles, Max Wind SpeedMPH, Mean Wind SpeedMPH, Max Gust SpeedMPH,PrecipitationIn, CloudCover, Events, WindDirDegrees
2012-10-1,82,72,62,62,58,55,93,68,42,29.83,29.73,29.67,10,10,4,18,8,26,0.01,5,Rain,327
2012-10-2,84,72,59,63,58,52,97,67,37,29.98,29.90,29.83,10,9,6,9,1,13,T,0,,45
2012-10-3,84,72,60,64,60,57,97,70,43,30.11,30.04,29.98,10,9,6,10,2,15,0.00,0,,207
2012-10-4,87,76,65,73,68,63,100,76,51,30.21,30.16,30.11,10,8,2,14,4,16,0.00,2,,129
2012-10-5,86,76,66,71,67,61,100,72,44,30.16,30.11,30.03,10,5,0,8,2,14,0.00,2,Fog,138
2012-10-6,86,73,59,70,65,56,100,79,58,30.09,30.03,29.97,10,9,2,21,6,24,0.00,3,,21
2012-10-7,72,63,54,54,51,46,86,70,53,30.20,30.14,30.08,10,10,10,20,12,24,0.00,4,,19
2012-10-8,72,63,54,54,49,45,86,67,47,30.24,30.17,30.12,10,10,10,14,8,18,0.00,4,,34
2012-10-9,82,67,51,65,57,48,93,72,51,30.16,30.09,30.01,10,10,10,12,4,15,0.00,0,,122
2012-10-10,88,76,64,72,68,62,93,73,53,30.17,30.12,30.06,10,10,7,10,3,14,0.00,3,,119
2012-10-11,88,78,67,70,67,63,100,73,46,30.23,30.16,30.12,10,6,1,16,5,20,0.00,1,,119
2012-10-12,86,76,65,72,68,64,100,81,61,30.24,30.18,30.14,10,5,0,12,5,21,0.00,2,Fog,124
2012-10-13,87,78,69,74,70,68,100,79,57,30.18,30.12,30.03,10,7,0,18,8,23,0.00,3,Fog,146
2012-10-14,87,79,71,74,71,68,100,80,59,30.13,30.05,30.01,10,10,6,14,5,21,T,1,,205
2012-10-15,84,73,62,74,63,53,94,66,37,30.09,30.03,29.97,10,9,2,17,6,21,0.22,2,Rain-Thunderstorm,11
2012-10-16,81,69,57,70,62,54,93,76,58,30.01,29.92,29.83,10,10,5,17,4,23,0.16,2,Rain,139
2012-10-17,85,73,61,75,70,60,100,83,65,29.85,29.76,29.67,10,9,6,17,7,28,0.00,3,,183
2012-10-18,82,72,61,76,60,44,94,61,28,29.97,29.84,29.72,10,10,8,21,9,28,0.03,4,Rain-Thunderstorm,353
2012-10-19,83,67,50,53,47,37,93,57,21,30.03,29.97,29.93,10,10,10,14,2,18,0.00,0,,332
2012-10-20,84,67,50,60,52,43,96,60,24,30.02,29.97,29.94,10,10,10,13,4,16,0.00,0,,159
2012-10-21,86,74,61,69,64,59,93,74,55,30.07,30.02,29.96,10,10,10,16,6,23,0.00,1,,139
2012-10-22,85,74,63,69,65,63,100,78,55,30.10,30.05,30.01,10,8,1,15,6,18,0.00,2,,115
2012-10-23,86,75,63,70,66,62,100,79,57,30.07,30.03,29.99,10,9,4,12,4,17,0.00,2,,127
2012-10-24,85,75,64,72,67,63,100,78,55,30.07,30.01,29.96,10,4,0,16,6,21,0.00,5,Fog,107
2012-10-25,86,77,67,72,69,66,100,76,51,29.99,29.94,29.90,10,7,0,15,5,18,T,5,Fog-Rain,121
2012-10-26,75,70,64,72,64,48,100,89,78,30.16,29.99,29.93,10,4,0,20,5,25,0.00,7,Fog,12
2012-10-27,66,58,49,46,40,35,83,59,34,30.18,30.12,30.04,10,10,10,24,14,33,0.00,3,,2
2012-10-28,68,55,42,38,35,31,82,54,26,30.23,30.18,30.13,10,10,10,18,8,24,0.00,0,,360
2012-10-29,69,55,40,42,36,34,89,58,26,30.30,30.22,30.16,10,10,10,17,5,23,0.00,0,,9
2012-10-30,71,55,39,52,43,38,100,68,36,30.17,30.12,30.03,10,10,9,12,2,17,0.00,0,,210
2012-10-31,81,66,50,64,56,48,96,71,45,30.09,30.03,29.97,10,8,0,14,4,20,0.00,2,,230